Terminal Aerodrome Forecast
Issued by NWS

Home | Current Version | Previous Version | Text Only | Print | Product List | Glossary On
Versions: 1 2 3 4 5 6 7 8 9 10 11 12 13 14 15 16 17 18 19 20
000
FTUS43 KGRB 222300 RRA
TAFAUW
TAF
KAUW 222341Z 2300/2324 10008G14KT 6SM BR SCT008 OVC012
      TEMPO 2300/2302 2SM -SN BR BKN008
     FM230200 09009KT 2SM -SN BR SCT004 OVC008
      TEMPO 2302/2306 1SM -SN BKN004
     FM230600 08009KT 1 1/2SM -SN BR OVC004
     FM231700 06009KT 1 1/2SM -SNDZ OVC002=

USA.gov is the U.S. government's official web portal to all federal, state and local government web resources and services.